Time;durP1;ratioP1;P1;durP2;ratioP2;P2;SDS_P1;SDS_P2;PMS_P1;PMS_P2;Temp;Humidity;BMP_temperature;BMP_pressure;BME280_temperature;BME280_humidity;BME280_pressure;Samples;Min_cycle;Max_cycle;Signal;HPM_P1;HPM_P2
2022/05/11 00:00:08;;;;;;;11.33;9.80;;;;;;;;;;5071829;28;20302;-51
2022/05/11 00:02:34;;;;;;;11.57;9.27;;;;;;;;;;5072158;28;20195;-52
2022/05/11 00:05:00;;;;;;;11.03;10.03;;;;;;;;;;5070317;28;20654;-52
2022/05/11 00:07:27;;;;;;;11.77;10.60;;;;;;;;;;5072298;28;20195;-52
2022/05/11 00:09:53;;;;;;;12.50;10.40;;;;;;;;;;5072134;28;20313;-52
2022/05/11 00:12:19;;;;;;;12.20;11.10;;;;;;;;;;5071956;28;20780;-52
2022/05/11 00:14:45;;;;;;;13.07;10.80;;;;;;;;;;5071881;28;20192;-52
2022/05/11 00:17:12;;;;;;;13.73;12.23;;;;;;;;;;5071767;28;20341;-52
2022/05/11 00:19:38;;;;;;;11.93;10.77;;;;;;;;;;5072149;28;20211;-52
2022/05/11 00:22:04;;;;;;;11.67;10.50;;;;;;;;;;5072032;28;20203;-52
2022/05/11 00:24:32;;;;;;;12.37;11.27;;;;;;;;;;5072273;28;20565;-52
2022/05/11 00:26:58;;;;;;;15.60;12.13;;;;;;;;;;5072013;28;20671;-52
2022/05/11 00:29:24;;;;;;;13.10;11.80;;;;;;;;;;5072052;28;20191;-49
2022/05/11 00:31:50;;;;;;;13.63;12.30;;;;;;;;;;5072025;28;20249;-52
2022/05/11 00:34:16;;;;;;;13.17;11.87;;;;;;;;;;5071908;28;20750;-53
2022/05/11 00:36:42;;;;;;;15.63;13.80;;;;;;;;;;5071766;28;20274;-53
2022/05/11 00:39:07;;;;;;;16.43;13.83;;;;;;;;;;5071499;28;20231;-53
2022/05/11 00:41:35;;;;;;;15.47;13.87;;;;;;;;;;5071939;28;20212;-53
2022/05/11 00:44:01;;;;;;;14.40;13.00;;;;;;;;;;5071824;28;20215;-52
2022/05/11 00:46:29;;;;;;;14.53;12.90;;;;;;;;;;5071959;28;20195;-52
2022/05/11 00:51:44;;;;;;;14.53;13.00;;;;;;;;;;5072058;28;20191;-52
2022/05/11 00:54:10;;;;;;;14.43;12.93;;;;;;;;;;5071747;28;20616;-53
2022/05/11 00:56:40;;;;;;;14.03;12.73;;;;;;;;;;5071810;28;20211;-53
2022/05/11 00:59:09;;;;;;;15.20;12.90;;;;;;;;;;5071501;28;20284;-53
2022/05/11 01:01:36;;;;;;;14.63;13.23;;;;;;;;;;5071720;28;20730;-53
2022/05/11 01:04:04;;;;;;;15.20;13.70;;;;;;;;;;5071687;28;20222;-53
2022/05/11 01:06:31;;;;;;;14.23;12.83;;;;;;;;;;5071723;28;20631;-53
2022/05/11 01:08:58;;;;;;;15.20;13.63;;;;;;;;;;5071643;28;20199;-53
2022/05/11 01:11:24;;;;;;;14.87;12.97;;;;;;;;;;5071716;28;20199;-53
2022/05/11 01:13:52;;;;;;;16.13;14.37;;;;;;;;;;5074973;28;20210;-53
2022/05/11 01:16:18;;;;;;;14.70;13.13;;;;;;;;;;5075412;28;20231;-53
2022/05/11 01:18:45;;;;;;;14.67;13.17;;;;;;;;;;5075925;28;20231;-53
2022/05/11 01:21:11;;;;;;;14.30;12.90;;;;;;;;;;5075635;28;20212;-53
2022/05/11 01:23:42;;;;;;;12.77;11.57;;;;;;;;;;5075867;28;20207;-53
2022/05/11 01:26:09;;;;;;;13.50;12.20;;;;;;;;;;5075517;28;20708;-53
2022/05/11 01:28:40;;;;;;;13.37;12.17;;;;;;;;;;5075347;28;20658;-53
2022/05/11 01:31:08;;;;;;;13.63;12.20;;;;;;;;;;5075333;28;20283;-53
2022/05/11 01:33:37;;;;;;;12.53;11.23;;;;;;;;;;5075528;28;20195;-53
2022/05/11 01:36:07;;;;;;;13.23;11.93;;;;;;;;;;5075232;28;20277;-53
2022/05/11 01:38:39;;;;;;;12.03;10.90;;;;;;;;;;5075009;28;20223;-53
2022/05/11 01:41:05;;;;;;;12.30;11.13;;;;;;;;;;5075015;28;20666;-53
2022/05/11 01:43:35;;;;;;;11.83;10.67;;;;;;;;;;5075036;28;20662;-53
2022/05/11 01:46:01;;;;;;;11.70;10.20;;;;;;;;;;5075014;28;20227;-53
2022/05/11 01:48:27;;;;;;;12.67;10.20;;;;;;;;;;5075060;28;20219;-53
2022/05/11 01:50:53;;;;;;;11.47;10.37;;;;;;;;;;5075034;28;20199;-53
2022/05/11 01:53:19;;;;;;;10.57;9.53;;;;;;;;;;5074770;28;20196;-53
2022/05/11 01:55:45;;;;;;;10.57;9.57;;;;;;;;;;5074902;28;20207;-53
2022/05/11 01:58:12;;;;;;;11.10;10.10;;;;;;;;;;5074593;28;20289;-53
2022/05/11 02:00:40;;;;;;;10.87;9.27;;;;;;;;;;5074778;28;20223;-53
2022/05/11 02:03:06;;;;;;;11.77;9.60;;;;;;;;;;5074746;28;20199;-53
2022/05/11 02:08:17;;;;;;;10.93;9.20;;;;;;;;;;5074797;28;20198;-53
2022/05/11 02:10:43;;;;;;;10.30;9.20;;;;;;;;;;5074600;28;20227;-52
2022/05/11 02:13:09;;;;;;;10.40;9.40;;;;;;;;;;5074407;28;20266;-53
2022/05/11 02:15:38;;;;;;;9.53;8.63;;;;;;;;;;5074530;28;20266;-53
2022/05/11 02:18:07;;;;;;;9.87;8.63;;;;;;;;;;5074334;28;20306;-53
2022/05/11 02:20:33;;;;;;;9.87;8.47;;;;;;;;;;5074589;28;20209;-53
2022/05/11 02:22:59;;;;;;;9.13;8.23;;;;;;;;;;5074366;28;20646;-53
2022/05/11 02:25:26;;;;;;;9.73;7.93;;;;;;;;;;5074330;28;20219;-53
2022/05/11 02:27:52;;;;;;;8.73;7.97;;;;;;;;;;5074184;28;20245;-53
2022/05/11 02:30:19;;;;;;;8.30;7.50;;;;;;;;;;5074251;28;20222;-53
2022/05/11 02:32:45;;;;;;;9.10;7.50;;;;;;;;;;5074508;28;20246;-53
2022/05/11 02:35:13;;;;;;;8.07;7.37;;;;;;;;;;5073866;28;20200;-53
2022/05/11 02:37:40;;;;;;;7.27;6.53;;;;;;;;;;5074040;28;20273;-53
2022/05/11 02:40:06;;;;;;;7.63;6.97;;;;;;;;;;5073953;28;20195;-53
2022/05/11 02:42:32;;;;;;;7.70;6.97;;;;;;;;;;5073911;28;20188;-53
2022/05/11 02:44:58;;;;;;;7.53;6.60;;;;;;;;;;5073892;28;20282;-53
2022/05/11 02:47:24;;;;;;;7.30;6.60;;;;;;;;;;5073948;28;20302;-53
2022/05/11 02:49:51;;;;;;;6.87;6.17;;;;;;;;;;5073670;28;20204;-53
2022/05/11 02:52:18;;;;;;;8.77;6.30;;;;;;;;;;5073908;28;20282;-53
2022/05/11 02:54:46;;;;;;;7.40;6.20;;;;;;;;;;5073906;28;20199;-53
2022/05/11 02:57:12;;;;;;;9.60;5.90;;;;;;;;;;5073686;28;20207;-53
2022/05/11 02:59:38;;;;;;;6.43;5.70;;;;;;;;;;5073579;28;20576;-53
2022/05/11 03:02:04;;;;;;;7.97;5.90;;;;;;;;;;5073528;28;20198;-53
2022/05/11 03:04:30;;;;;;;6.50;5.90;;;;;;;;;;5073884;28;20196;-53
2022/05/11 03:06:57;;;;;;;7.70;6.00;;;;;;;;;;5073481;28;20198;-53
2022/05/11 03:09:24;;;;;;;8.13;5.80;;;;;;;;;;5073684;28;20199;-53
2022/05/11 03:11:50;;;;;;;5.80;5.30;;;;;;;;;;5073446;28;20199;-53
2022/05/11 03:14:17;;;;;;;7.60;5.57;;;;;;;;;;5073376;28;20249;-53
2022/05/11 03:16:43;;;;;;;6.87;5.37;;;;;;;;;;5073381;28;20737;-53
2022/05/11 03:19:09;;;;;;;9.27;5.77;;;;;;;;;;5073260;28;20243;-53
2022/05/11 03:21:35;;;;;;;8.43;5.90;;;;;;;;;;5073442;28;20223;-53
2022/05/11 03:24:01;;;;;;;6.13;5.53;;;;;;;;;;5073158;28;20270;-53
2022/05/11 03:26:29;;;;;;;5.97;5.30;;;;;;;;;;5072853;28;20196;-53
2022/05/11 03:28:56;;;;;;;6.00;5.20;;;;;;;;;;5072956;28;20249;-53
2022/05/11 03:31:22;;;;;;;5.57;5.07;;;;;;;;;;5073125;28;20196;-53
2022/05/11 03:36:33;;;;;;;5.83;5.03;;;;;;;;;;5072584;28;20195;-53
2022/05/11 03:38:59;;;;;;;6.67;5.10;;;;;;;;;;5072713;28;20219;-53
2022/05/11 03:41:25;;;;;;;10.33;5.33;;;;;;;;;;5072891;28;20195;-53
2022/05/11 03:43:52;;;;;;;6.23;5.20;;;;;;;;;;5072780;28;20191;-53
2022/05/11 03:46:18;;;;;;;7.77;5.10;;;;;;;;;;5072669;28;20238;-53
2022/05/11 03:48:44;;;;;;;8.43;5.33;;;;;;;;;;5072783;28;20219;-53
2022/05/11 03:51:10;;;;;;;6.97;5.30;;;;;;;;;;5072435;28;20211;-53
2022/05/11 03:53:37;;;;;;;5.87;5.27;;;;;;;;;;5072621;28;20684;-53
2022/05/11 03:56:03;;;;;;;5.73;5.07;;;;;;;;;;5072514;28;20613;-53
2022/05/11 03:58:29;;;;;;;6.27;4.80;;;;;;;;;;5072551;28;20263;-53
2022/05/11 04:00:57;;;;;;;6.10;4.90;;;;;;;;;;5072563;28;20199;-53
2022/05/11 04:03:23;;;;;;;8.20;4.57;;;;;;;;;;5072729;28;20283;-53
2022/05/11 04:05:49;;;;;;;4.70;4.30;;;;;;;;;;5072682;28;20200;-53
2022/05/11 04:08:15;;;;;;;5.40;4.97;;;;;;;;;;5072384;28;20729;-53
2022/05/11 04:10:41;;;;;;;4.53;4.13;;;;;;;;;;5072293;28;20199;-54
2022/05/11 04:13:07;;;;;;;5.03;4.53;;;;;;;;;;5072184;28;20731;-54
2022/05/11 04:15:33;;;;;;;6.10;4.63;;;;;;;;;;5072238;28;20247;-53
2022/05/11 04:18:00;;;;;;;5.97;4.30;;;;;;;;;;5072051;28;20690;-54
2022/05/11 04:20:26;;;;;;;6.20;4.77;;;;;;;;;;5072336;28;20230;-54
2022/05/11 04:22:52;;;;;;;7.00;4.40;;;;;;;;;;5072086;28;20274;-53
2022/05/11 04:25:18;;;;;;;5.53;4.50;;;;;;;;;;5072018;28;20223;-54
2022/05/11 04:27:45;;;;;;;9.70;4.97;;;;;;;;;;5072165;28;20200;-53
2022/05/11 04:30:12;;;;;;;5.60;4.93;;;;;;;;;;5071999;28;20199;-54
2022/05/11 04:32:38;;;;;;;4.77;4.10;;;;;;;;;;5072121;28;20204;-54
2022/05/11 04:35:06;;;;;;;5.20;4.33;;;;;;;;;;5071983;28;20571;-54
2022/05/11 04:37:32;;;;;;;6.03;4.93;;;;;;;;;;5072107;28;20226;-54
2022/05/11 04:39:58;;;;;;;5.13;4.63;;;;;;;;;;5071860;28;20674;-54
2022/05/11 04:42:24;;;;;;;7.00;4.57;;;;;;;;;;5071832;28;20187;-54
2022/05/11 04:44:52;;;;;;;5.43;4.93;;;;;;;;;;5071770;28;20545;-54
2022/05/11 04:47:18;;;;;;;5.67;4.70;;;;;;;;;;5071160;28;20195;-54
2022/05/11 04:49:44;;;;;;;9.07;5.27;;;;;;;;;;5071826;28;20685;-54
2022/05/11 04:52:13;;;;;;;6.20;4.57;;;;;;;;;;5071663;28;20203;-53
2022/05/11 04:54:41;;;;;;;6.87;4.70;;;;;;;;;;5071625;28;20287;-54
2022/05/11 04:57:08;;;;;;;4.87;4.37;;;;;;;;;;5071702;28;20198;-53
2022/05/11 04:59:34;;;;;;;7.27;4.77;;;;;;;;;;5071603;28;20247;-54
2022/05/11 05:02:00;;;;;;;6.13;4.67;;;;;;;;;;5071658;28;20214;-53
2022/05/11 05:04:26;;;;;;;5.53;4.80;;;;;;;;;;5071671;28;20291;-53
2022/05/11 05:06:52;;;;;;;4.23;3.83;;;;;;;;;;5071587;28;20287;-54
2022/05/11 05:09:20;;;;;;;4.57;4.17;;;;;;;;;;5071404;28;20199;-54
2022/05/11 05:11:46;;;;;;;5.33;4.70;;;;;;;;;;5071571;28;20290;-54
2022/05/11 05:14:13;;;;;;;6.00;4.57;;;;;;;;;;5071252;28;20191;-54
2022/05/11 05:16:39;;;;;;;5.27;4.60;;;;;;;;;;5071276;28;20231;-54
2022/05/11 05:19:06;;;;;;;5.20;4.63;;;;;;;;;;5071081;28;20230;-54
2022/05/11 05:21:32;;;;;;;5.03;4.53;;;;;;;;;;5071474;28;20213;-54
2022/05/11 05:23:58;;;;;;;4.90;4.40;;;;;;;;;;5071444;28;20591;-54
2022/05/11 05:26:25;;;;;;;5.03;4.40;;;;;;;;;;5071422;28;20188;-54
2022/05/11 05:31:36;;;;;;;4.67;4.23;;;;;;;;;;5071674;28;20746;-55
2022/05/11 05:34:03;;;;;;;6.30;4.73;;;;;;;;;;5071349;28;20243;-55
2022/05/11 05:36:29;;;;;;;7.63;5.13;;;;;;;;;;5071479;28;20657;-54
2022/05/11 05:38:55;;;;;;;5.17;4.10;;;;;;;;;;5071223;28;20227;-54
2022/05/11 05:41:21;;;;;;;6.22;5.13;;;;;;;;;;5070167;28;20399;-54
2022/05/11 05:43:49;;;;;;;4.80;4.30;;;;;;;;;;5071231;28;20274;-55
2022/05/11 05:46:16;;;;;;;4.90;4.10;;;;;;;;;;5071235;28;20200;-54
2022/05/11 05:48:42;;;;;;;4.77;4.30;;;;;;;;;;5070902;28;20554;-54
2022/05/11 05:51:09;;;;;;;6.13;4.43;;;;;;;;;;5071116;28;20191;-54
2022/05/11 05:53:35;;;;;;;6.50;4.50;;;;;;;;;;5071323;28;20206;-55
2022/05/11 05:56:01;;;;;;;4.90;4.43;;;;;;;;;;5071244;28;20275;-55
2022/05/11 05:58:27;;;;;;;5.03;4.57;;;;;;;;;;5072330;28;20788;-55
2022/05/11 06:00:55;;;;;;;6.57;4.73;;;;;;;;;;5074655;28;20662;-56
2022/05/11 06:03:21;;;;;;;5.50;5.00;;;;;;;;;;5074707;28;20346;-54
2022/05/11 06:05:47;;;;;;;4.93;4.43;;;;;;;;;;5074616;28;20662;-54
2022/05/11 06:08:16;;;;;;;4.97;4.47;;;;;;;;;;5074780;28;20279;-54
2022/05/11 06:10:43;;;;;;;5.97;5.00;;;;;;;;;;5074683;28;20200;-55
2022/05/11 06:13:09;;;;;;;4.90;4.40;;;;;;;;;;5074342;28;20234;-54
2022/05/11 06:15:38;;;;;;;6.13;5.10;;;;;;;;;;5074361;28;20326;-55
2022/05/11 06:18:10;;;;;;;5.90;4.70;;;;;;;;;;5074411;28;20572;-54
2022/05/11 06:20:36;;;;;;;5.50;4.53;;;;;;;;;;5074384;28;20199;-54
2022/05/11 06:23:03;;;;;;;5.97;4.40;;;;;;;;;;5072575;28;20206;-55
2022/05/11 06:25:30;;;;;;;5.00;4.50;;;;;;;;;;5074559;28;20230;-54
2022/05/11 06:27:57;;;;;;;5.33;4.60;;;;;;;;;;5074282;28;20196;-55
2022/05/11 06:30:23;;;;;;;7.03;5.40;;;;;;;;;;5074148;28;20282;-54
2022/05/11 06:32:49;;;;;;;6.40;5.07;;;;;;;;;;5073991;28;20679;-54
2022/05/11 06:35:16;;;;;;;6.47;4.80;;;;;;;;;;5074121;28;20203;-54
2022/05/11 06:37:44;;;;;;;6.90;5.17;;;;;;;;;;5074074;28;20288;-54
2022/05/11 06:40:11;;;;;;;6.00;4.83;;;;;;;;;;5074064;28;20705;-54
2022/05/11 06:42:37;;;;;;;10.47;5.47;;;;;;;;;;5074114;28;20226;-54
2022/05/11 06:45:05;;;;;;;6.00;5.30;;;;;;;;;;5073787;28;20253;-54
2022/05/11 06:47:31;;;;;;;5.40;4.90;;;;;;;;;;5074130;28;20283;-59
2022/05/11 06:49:57;;;;;;;6.90;4.93;;;;;;;;;;5073845;28;20203;-54
2022/05/11 06:52:24;;;;;;;5.67;5.17;;;;;;;;;;5073822;28;20555;-54
2022/05/11 07:00:20;;;;;;;7.73;5.43;;;;;;;;;;5073637;28;20326;-55
2022/05/11 07:02:46;;;;;;;5.70;5.20;;;;;;;;;;5073685;28;20220;-54
2022/05/11 07:05:12;;;;;;;6.30;5.30;;;;;;;;;;5073496;28;20197;-59
2022/05/11 07:07:40;;;;;;;6.13;5.43;;;;;;;;;;5073555;28;20209;-54
2022/05/11 07:10:07;;;;;;;6.27;5.13;;;;;;;;;;5072486;28;20655;-54
2022/05/11 07:12:35;;;;;;;6.10;5.50;;;;;;;;;;5073431;28;20200;-54
2022/05/11 07:15:01;;;;;;;6.50;5.60;;;;;;;;;;5073622;28;20325;-54
2022/05/11 07:17:30;;;;;;;6.93;5.07;;;;;;;;;;5073025;28;20237;-54
2022/05/11 07:19:57;;;;;;;5.33;4.83;;;;;;;;;;5073111;28;20699;-54
2022/05/11 07:22:23;;;;;;;10.87;5.93;;;;;;;;;;5073192;28;20206;-53
2022/05/11 07:24:50;;;;;;;7.33;5.03;;;;;;;;;;5072876;28;20262;-54
2022/05/11 07:27:17;;;;;;;8.37;5.13;;;;;;;;;;5073041;28;20653;-54
2022/05/11 07:29:43;;;;;;;6.82;5.47;;;;;;;;;;5071898;28;20391;-54
2022/05/11 07:32:09;;;;;;;5.63;4.70;;;;;;;;;;5071746;28;20400;-55
2022/05/11 07:34:36;;;;;;;5.10;4.70;;;;;;;;;;5072886;28;20642;-54
2022/05/11 07:37:01;;;;;;;6.47;5.17;;;;;;;;;;5072649;28;20221;-54
2022/05/11 07:39:28;;;;;;;8.27;4.77;;;;;;;;;;5072599;28;20227;-52
2022/05/11 07:41:55;;;;;;;7.17;4.50;;;;;;;;;;5072681;28;20207;-52
2022/05/11 07:44:21;;;;;;;7.77;4.43;;;;;;;;;;5072715;28;20207;-54
2022/05/11 07:46:47;;;;;;;5.47;4.17;;;;;;;;;;5072571;28;20203;-54
2022/05/11 07:49:13;;;;;;;5.80;3.63;;;;;;;;;;5072367;28;20206;-54
2022/05/11 07:51:41;;;;;;;5.53;4.20;;;;;;;;;;5072867;28;20196;-52
2022/05/11 07:54:08;;;;;;;4.60;4.10;;;;;;;;;;5072550;28;20203;-53
2022/05/11 08:02:05;;;;;;;4.57;4.17;;;;;;;;;;5072553;28;20321;-53
2022/05/11 08:04:31;;;;;;;5.37;4.20;;;;;;;;;;5072410;28;20650;-54
2022/05/11 08:06:57;;;;;;;7.93;4.10;;;;;;;;;;5072401;28;20192;-54
2022/05/11 08:09:23;;;;;;;6.50;4.20;;;;;;;;;;5072158;28;20257;-54
2022/05/11 08:11:50;;;;;;;6.17;4.30;;;;;;;;;;5071859;28;20203;-54
2022/05/11 08:14:17;;;;;;;7.17;4.37;;;;;;;;;;5071990;28;20219;-54
2022/05/11 08:16:44;;;;;;;4.30;3.90;;;;;;;;;;5071973;28;20658;-54
2022/05/11 08:19:12;;;;;;;5.90;3.80;;;;;;;;;;5071574;28;20300;-54
2022/05/11 08:21:38;;;;;;;8.10;3.87;;;;;;;;;;5071699;28;20261;-54
2022/05/11 08:24:04;;;;;;;4.20;3.80;;;;;;;;;;5071561;28;20223;-54
2022/05/11 08:26:30;;;;;;;8.53;4.47;;;;;;;;;;5071876;28;20229;-54
2022/05/11 08:28:56;;;;;;;3.97;3.40;;;;;;;;;;5071576;28;20192;-57
2022/05/11 08:34:08;;;;;;;9.50;3.80;;;;;;;;;;5072218;28;20536;-55
2022/05/11 08:36:34;;;;;;;7.00;3.47;;;;;;;;;;5072324;28;20672;-54
2022/05/11 08:39:04;;;;;;;6.43;3.90;;;;;;;;;;5072016;28;20259;-54
2022/05/11 08:41:33;;;;;;;5.57;3.20;;;;;;;;;;5072175;28;20192;-55
2022/05/11 08:44:00;;;;;;;5.30;2.90;;;;;;;;;;5071905;28;20208;-57
2022/05/11 08:46:38;;;;;;;7.60;3.87;;;;;;;;;;5071953;28;20199;-55
2022/05/11 08:49:04;;;;;;;5.67;3.07;;;;;;;;;;5071809;28;20197;-54
2022/05/11 08:51:35;;;;;;;3.97;2.97;;;;;;;;;;5072135;28;20205;-57
2022/05/11 08:54:07;;;;;;;4.37;3.00;;;;;;;;;;5071869;28;20225;-58
2022/05/11 08:56:34;;;;;;;6.37;3.40;;;;;;;;;;5071802;28;20199;-55
2022/05/11 08:59:00;;;;;;;3.37;3.07;;;;;;;;;;5071457;28;20571;-54
2022/05/11 09:01:29;;;;;;;5.03;3.30;;;;;;;;;;5071822;28;20287;-54
2022/05/11 09:03:57;;;;;;;3.87;3.00;;;;;;;;;;5071165;28;20570;-54
2022/05/11 09:06:24;;;;;;;4.23;3.33;;;;;;;;;;5071288;28;20193;-54
2022/05/11 09:08:52;;;;;;;5.27;3.23;;;;;;;;;;5071462;28;20283;-54
2022/05/11 09:11:24;;;;;;;4.80;3.30;;;;;;;;;;5071610;28;20251;-54
2022/05/11 09:13:50;;;;;;;6.63;3.40;;;;;;;;;;5071482;28;20660;-54
2022/05/11 09:16:21;;;;;;;5.50;3.27;;;;;;;;;;5071403;28;20242;-55
2022/05/11 09:18:47;;;;;;;5.37;3.47;;;;;;;;;;5071573;28;20221;-55
2022/05/11 09:21:21;;;;;;;4.30;3.13;;;;;;;;;;5071049;28;20260;-54
2022/05/11 09:23:51;;;;;;;4.57;2.93;;;;;;;;;;5091503;28;20205;-52
2022/05/11 09:26:28;;;;;;;3.83;3.40;;;;;;;;;;5087471;28;20321;-53
2022/05/11 09:29:08;;;;;;;11.07;3.47;;;;;;;;;;5091588;28;20208;-52
2022/05/11 09:31:34;;;;;;;5.67;3.50;;;;;;;;;;5091940;28;20198;-52
2022/05/11 09:34:01;;;;;;;6.80;4.20;;;;;;;;;;5093764;28;20197;-52
2022/05/11 09:36:35;;;;;;;7.33;3.63;;;;;;;;;;5095336;28;20215;-52
2022/05/11 09:39:05;;;;;;;4.67;3.60;;;;;;;;;;5095311;28;20240;-52
2022/05/11 09:41:33;;;;;;;5.97;4.10;;;;;;;;;;5095461;28;20266;-52
2022/05/11 09:44:00;;;;;;;5.23;3.70;;;;;;;;;;5095293;28;20197;-53
2022/05/11 09:46:29;;;;;;;4.83;3.40;;;;;;;;;;5095142;28;20222;-52
2022/05/11 09:48:57;;;;;;;4.33;3.93;;;;;;;;;;5095060;28;20182;-51
2022/05/11 09:51:24;;;;;;;4.77;3.93;;;;;;;;;;5094891;28;20202;-53
2022/05/11 09:53:52;;;;;;;6.83;4.03;;;;;;;;;;5095040;28;20207;-52
2022/05/11 09:56:20;;;;;;;4.07;3.67;;;;;;;;;;5094917;28;20206;-53
2022/05/11 09:58:48;;;;;;;5.50;3.57;;;;;;;;;;5095056;28;20223;-52
2022/05/11 10:01:15;;;;;;;7.27;3.77;;;;;;;;;;5094777;28;20199;-53
2022/05/11 10:03:45;;;;;;;6.77;4.17;;;;;;;;;;5094870;28;20244;-52
2022/05/11 10:06:12;;;;;;;5.83;4.20;;;;;;;;;;5094702;28;20287;-53
2022/05/11 10:08:39;;;;;;;4.47;3.63;;;;;;;;;;5094820;28;20693;-51
2022/05/11 10:11:06;;;;;;;6.97;4.70;;;;;;;;;;5094554;28;20631;-53
2022/05/11 10:13:35;;;;;;;4.90;3.60;;;;;;;;;;5094764;28;20198;-52
2022/05/11 10:21:56;;;;;;;7.80;3.90;;;;;;;;;;5094628;28;20250;-52
2022/05/11 10:24:40;;;;;;;10.10;3.63;;;;;;;;;;5094173;28;20226;-52
2022/05/11 10:27:10;;;;;;;5.33;3.33;;;;;;;;;;5093409;28;20230;-53
2022/05/11 10:29:47;;;;;;;4.20;3.10;;;;;;;;;;5094319;28;20205;-52
2022/05/11 10:32:17;;;;;;;5.33;3.57;;;;;;;;;;5094143;28;20255;-53
2022/05/11 10:34:46;;;;;;;5.23;3.43;;;;;;;;;;5093993;28;20245;-52
2022/05/11 10:37:19;;;;;;;6.83;3.40;;;;;;;;;;5093974;28;20234;-52
2022/05/11 10:39:49;;;;;;;8.03;3.33;;;;;;;;;;5093989;28;20689;-53
2022/05/11 10:42:19;;;;;;;7.53;3.40;;;;;;;;;;5093598;28;20545;-52
2022/05/11 10:44:50;;;;;;;3.47;3.13;;;;;;;;;;5092438;28;20195;-53
2022/05/11 10:47:26;;;;;;;4.20;2.97;;;;;;;;;;5093526;28;20191;-52
2022/05/11 10:50:00;;;;;;;7.73;4.20;;;;;;;;;;5093770;28;20190;-53
2022/05/11 10:52:35;;;;;;;6.47;3.70;;;;;;;;;;5093223;28;20210;-53
2022/05/11 10:55:08;;;;;;;4.10;3.27;;;;;;;;;;5093668;28;20206;-52
2022/05/11 10:57:40;;;;;;;8.97;3.10;;;;;;;;;;5093787;28;20616;-53
2022/05/11 11:00:07;;;;;;;4.77;3.23;;;;;;;;;;5093049;28;20236;-54
2022/05/11 11:02:43;;;;;;;5.60;3.00;;;;;;;;;;5093661;28;20212;-52
2022/05/11 11:05:11;;;;;;;7.60;3.47;;;;;;;;;;5093295;28;20556;-53
2022/05/11 11:07:43;;;;;;;4.57;2.97;;;;;;;;;;5093528;28;20299;-53
2022/05/11 11:10:13;;;;;;;9.80;3.30;;;;;;;;;;5090775;28;20246;-54
2022/05/11 11:13:00;;;;;;;6.90;3.10;;;;;;;;;;5092885;28;20624;-53
2022/05/11 11:15:28;;;;;;;4.20;2.67;;;;;;;;;;5059484;28;20608;-53
2022/05/11 11:17:57;;;;;;;6.83;2.70;;;;;;;;;;5093447;28;20226;-53
2022/05/11 11:20:24;;;;;;;6.10;2.47;;;;;;;;;;5093151;28;20660;-53
2022/05/11 11:23:05;;;;;;;5.03;2.30;;;;;;;;;;5093619;28;20197;-57
2022/05/11 11:25:45;;;;;;;5.23;2.60;;;;;;;;;;5090147;28;20217;-54
2022/05/11 11:28:14;;;;;;;4.33;2.80;;;;;;;;;;5091179;28;20646;-53
2022/05/11 11:30:41;;;;;;;5.93;2.77;;;;;;;;;;5092867;28;20557;-53
2022/05/11 11:33:23;;;;;;;5.00;2.70;;;;;;;;;;5092876;28;20237;-53
2022/05/11 11:35:52;;;;;;;2.83;2.57;;;;;;;;;;5093126;28;20589;-53
2022/05/11 11:38:23;;;;;;;3.90;2.63;;;;;;;;;;5092760;28;20212;-54
2022/05/11 11:41:04;;;;;;;5.33;2.80;;;;;;;;;;5093105;28;20209;-53
2022/05/11 11:43:38;;;;;;;4.37;2.73;;;;;;;;;;5092873;28;20229;-53
2022/05/11 11:46:04;;;;;;;3.37;2.50;;;;;;;;;;5090808;28;20200;-51
2022/05/11 11:48:32;;;;;;;7.23;2.87;;;;;;;;;;5093195;28;20206;-52
2022/05/11 11:50:59;;;;;;;3.87;2.40;;;;;;;;;;5092884;28;20216;-52
2022/05/11 11:53:31;;;;;;;4.00;2.77;;;;;;;;;;5092722;28;20247;-52
2022/05/11 11:56:20;;;;;;;4.73;2.73;;;;;;;;;;5092435;28;20226;-52
2022/05/11 11:58:46;;;;;;;5.23;2.80;;;;;;;;;;5092572;28;20256;-52
2022/05/11 12:01:15;;;;;;;4.43;2.50;;;;;;;;;;5092645;28;20626;-52
2022/05/11 12:03:57;;;;;;;5.97;2.50;;;;;;;;;;5092690;28;20584;-52
2022/05/11 12:17:27;;;;;;;3.03;2.10;;;;;;;;;;5092154;28;20236;-53
2022/05/11 12:19:58;;;;;;;4.37;1.80;;;;;;;;;;5092148;28;20256;-54
2022/05/11 12:22:25;;;;;;;4.87;2.03;;;;;;;;;;5092075;28;20675;-53
2022/05/11 12:25:01;;;;;;;9.23;2.53;;;;;;;;;;5092370;28;20262;-53
2022/05/11 12:27:29;;;;;;;5.97;2.07;;;;;;;;;;5092222;28;20205;-53
2022/05/11 12:29:59;;;;;;;3.80;1.90;;;;;;;;;;5092244;28;20200;-54
2022/05/11 12:32:27;;;;;;;4.90;1.90;;;;;;;;;;5092234;28;20201;-54
2022/05/11 12:34:54;;;;;;;3.40;1.70;;;;;;;;;;5092197;28;20206;-54
2022/05/11 12:37:29;;;;;;;5.97;1.70;;;;;;;;;;5091793;28;20198;-54
2022/05/11 12:39:59;;;;;;;4.57;1.50;;;;;;;;;;5091903;28;20221;-52
2022/05/11 12:42:29;;;;;;;2.63;1.70;;;;;;;;;;5091745;28;20197;-52
2022/05/11 12:44:56;;;;;;;2.33;1.77;;;;;;;;;;5091805;28;20205;-52
2022/05/11 12:47:22;;;;;;;5.60;1.80;;;;;;;;;;5091777;28;20205;-52
2022/05/11 12:49:48;;;;;;;2.87;1.90;;;;;;;;;;5091818;28;20190;-56
2022/05/11 12:52:16;;;;;;;4.77;1.70;;;;;;;;;;5091569;28;20188;-52
2022/05/11 12:54:54;;;;;;;4.07;1.60;;;;;;;;;;5088517;28;20209;-55
2022/05/11 12:57:20;;;;;;;4.27;1.50;;;;;;;;;;5090553;28;20669;-52
2022/05/11 12:59:49;;;;;;;3.37;1.90;;;;;;;;;;5091604;28;20252;-53
2022/05/11 13:02:15;;;;;;;2.30;1.63;;;;;;;;;;5091492;28;20652;-53
2022/05/11 13:04:47;;;;;;;4.57;1.90;;;;;;;;;;5091586;28;20267;-53
2022/05/11 13:07:13;;;;;;;3.50;2.10;;;;;;;;;;5091774;28;20239;-53
2022/05/11 13:09:41;;;;;;;3.70;1.77;;;;;;;;;;5095130;28;20198;-54
2022/05/11 13:12:11;;;;;;;4.43;1.43;;;;;;;;;;5095548;28;20200;-53
2022/05/11 13:14:44;;;;;;;3.83;1.87;;;;;;;;;;5095512;28;20653;-57
2022/05/11 13:17:17;;;;;;;4.90;1.57;;;;;;;;;;5095401;28;20232;-53
2022/05/11 13:19:43;;;;;;;3.57;1.90;;;;;;;;;;5095480;28;20389;-53
2022/05/11 13:22:11;;;;;;;3.23;1.80;;;;;;;;;;5095301;28;20202;-53
2022/05/11 13:24:39;;;;;;;4.13;1.93;;;;;;;;;;5095570;28;20281;-52
2022/05/11 13:27:20;;;;;;;3.13;1.63;;;;;;;;;;5095315;28;20202;-53
2022/05/11 13:29:47;;;;;;;3.93;1.63;;;;;;;;;;5095263;28;20209;-53
2022/05/11 13:32:23;;;;;;;4.50;1.53;;;;;;;;;;5095536;28;20684;-53
2022/05/11 13:34:49;;;;;;;4.83;1.77;;;;;;;;;;5095697;28;20201;-53
2022/05/11 13:37:21;;;;;;;8.17;1.80;;;;;;;;;;5095393;28;20197;-54
2022/05/11 13:39:49;;;;;;;3.03;1.80;;;;;;;;;;5094993;28;20297;-54
2022/05/11 13:42:16;;;;;;;5.27;1.97;;;;;;;;;;5095151;28;20628;-53
2022/05/11 13:44:46;;;;;;;4.97;1.70;;;;;;;;;;5095504;28;20210;-53
2022/05/11 13:50:14;;;;;;;3.83;1.63;;;;;;;;;;5095248;28;20685;-53
2022/05/11 13:52:50;;;;;;;5.07;1.93;;;;;;;;;;5095498;28;20200;-53
2022/05/11 13:55:22;;;;;;;2.60;1.80;;;;;;;;;;5095199;28;20294;-53
2022/05/11 13:57:48;;;;;;;4.50;2.20;;;;;;;;;;5095249;28;20205;-54
2022/05/11 14:00:16;;;;;;;2.77;1.83;;;;;;;;;;5094888;28;20260;-53
2022/05/11 14:02:48;;;;;;;5.47;1.80;;;;;;;;;;5094917;28;20227;-53
2022/05/11 14:05:14;;;;;;;2.63;1.70;;;;;;;;;;5095075;28;20668;-54
2022/05/11 14:07:41;;;;;;;5.93;1.87;;;;;;;;;;5095302;28;20196;-53
2022/05/11 14:10:08;;;;;;;3.97;1.87;;;;;;;;;;5094781;28;20200;-61
2022/05/11 14:12:33;;;;;;;3.20;1.60;;;;;;;;;;5094818;28;20219;-54
2022/05/11 14:15:02;;;;;;;5.00;1.30;;;;;;;;;;5094854;28;20719;-54
2022/05/11 14:17:29;;;;;;;3.77;1.80;;;;;;;;;;5094686;28;20247;-54
2022/05/11 14:19:58;;;;;;;8.37;1.87;;;;;;;;;;5094369;28;20286;-54
2022/05/11 14:22:24;;;;;;;11.37;1.87;;;;;;;;;;5094850;28;20212;-53
2022/05/11 14:24:50;;;;;;;7.03;2.20;;;;;;;;;;5094591;28;20223;-58
2022/05/11 14:27:17;;;;;;;4.30;2.10;;;;;;;;;;5094468;28;20201;-54
2022/05/11 14:29:44;;;;;;;3.50;1.67;;;;;;;;;;5094596;28;20566;-56
2022/05/11 14:32:16;;;;;;;3.80;2.00;;;;;;;;;;5094415;28;20672;-57
2022/05/11 14:34:42;;;;;;;5.10;1.70;;;;;;;;;;5094523;28;20337;-56
2022/05/11 14:37:10;;;;;;;3.20;1.60;;;;;;;;;;5094146;28;20246;-57
2022/05/11 14:39:36;;;;;;;2.53;1.70;;;;;;;;;;5094328;28;20322;-54
2022/05/11 14:42:02;;;;;;;3.47;1.80;;;;;;;;;;5094279;28;20262;-53
2022/05/11 14:44:28;;;;;;;4.17;1.70;;;;;;;;;;5094374;28;20643;-54
2022/05/11 14:46:54;;;;;;;3.87;1.70;;;;;;;;;;5094252;28;20196;-54
2022/05/11 14:49:20;;;;;;;5.00;1.70;;;;;;;;;;5094268;28;20211;-54
2022/05/11 14:51:47;;;;;;;8.80;1.93;;;;;;;;;;5094409;28;20666;-54
2022/05/11 14:54:14;;;;;;;2.60;1.70;;;;;;;;;;5094175;28;20203;-54
2022/05/11 14:56:40;;;;;;;4.80;1.80;;;;;;;;;;5094151;28;20223;-54
2022/05/11 15:02:04;;;;;;;3.70;1.50;;;;;;;;;;5094066;28;20204;-54
2022/05/11 15:04:31;;;;;;;4.27;1.80;;;;;;;;;;5093907;28;20669;-53
2022/05/11 15:06:57;;;;;;;1.60;1.30;;;;;;;;;;5093908;28;20195;-54
2022/05/11 15:09:25;;;;;;;3.90;1.63;;;;;;;;;;5093774;28;20193;-54
2022/05/11 15:14:36;;;;;;;5.90;1.70;;;;;;;;;;5093812;28;20270;-53
2022/05/11 15:17:04;;;;;;;3.53;1.47;;;;;;;;;;5093756;28;20293;-53
2022/05/11 15:19:30;;;;;;;4.70;1.80;;;;;;;;;;5093725;28;20256;-54
2022/05/11 15:21:57;;;;;;;4.80;1.70;;;;;;;;;;5093604;28;20200;-53
2022/05/11 15:24:24;;;;;;;5.90;1.50;;;;;;;;;;5091744;28;20336;-54
2022/05/11 15:26:50;;;;;;;2.97;1.50;;;;;;;;;;5093537;28;20632;-53
2022/05/11 15:29:17;;;;;;;5.27;1.50;;;;;;;;;;5093757;28;20197;-53
2022/05/11 15:31:43;;;;;;;4.57;1.50;;;;;;;;;;5092712;28;20689;-53